createdAt,value
2023-04-09T00:02:21.299Z,50.97
2023-04-09T00:04:48.020Z,50.80
2023-04-09T00:07:14.784Z,50.87
2023-04-09T00:09:41.258Z,51.15
2023-04-09T00:12:07.737Z,50.65
2023-04-09T00:14:34.249Z,50.80
2023-04-09T00:17:00.773Z,50.93
2023-04-09T00:19:28.082Z,50.83
2023-04-09T00:21:54.586Z,51.43
2023-04-09T00:24:21.015Z,51.34
2023-04-09T00:26:49.865Z,52.34
2023-04-09T00:29:16.556Z,51.83
2023-04-09T00:31:43.057Z,52.42
2023-04-09T00:34:09.593Z,51.72
2023-04-09T00:36:36.222Z,51.36
2023-04-09T00:39:02.737Z,51.29
2023-04-09T00:41:31.138Z,50.99
2023-04-09T00:43:57.710Z,51.07
2023-04-09T00:46:24.534Z,50.90
2023-04-09T00:48:51.267Z,51.22
2023-04-09T00:51:17.963Z,50.95
2023-04-09T00:53:44.667Z,51.11
2023-04-09T00:56:11.161Z,51.02
2023-04-09T00:58:37.672Z,50.42
2023-04-09T01:01:04.210Z,50.50
2023-04-09T01:03:31.347Z,50.80
2023-04-09T01:05:57.943Z,50.51
2023-04-09T01:08:24.708Z,50.69
2023-04-09T01:10:51.306Z,50.86
2023-04-09T01:13:17.906Z,50.87
2023-04-09T01:15:44.973Z,51.09
2023-04-09T01:18:12.816Z,51.43
2023-04-09T01:20:39.703Z,51.10
2023-04-09T01:23:06.639Z,51.14
2023-04-09T01:25:33.361Z,51.03
2023-04-09T01:28:00.051Z,51.10
2023-04-09T01:30:26.965Z,51.08
2023-04-09T01:32:54.969Z,51.15
2023-04-09T01:35:22.177Z,51.39
2023-04-09T01:37:50.030Z,51.25
2023-04-09T01:40:18.013Z,50.93
2023-04-09T01:42:46.079Z,51.00
2023-04-09T01:45:15.230Z,50.94
2023-04-09T01:47:41.728Z,50.83
2023-04-09T01:50:10.725Z,50.89
2023-04-09T01:52:37.237Z,51.34
2023-04-09T01:55:04.972Z,51.37
2023-04-09T01:57:32.286Z,50.92
2023-04-09T01:59:58.713Z,51.05
2023-04-09T02:02:25.817Z,51.03
2023-04-09T02:04:52.300Z,51.38
2023-04-09T02:07:18.867Z,51.10
2023-04-09T02:09:46.044Z,51.00
2023-04-09T02:12:12.591Z,50.97
2023-04-09T02:14:39.382Z,50.86
2023-04-09T02:17:06.039Z,50.89
2023-04-09T02:19:33.293Z,50.84
2023-04-09T02:22:00.567Z,50.99
2023-04-09T02:24:28.037Z,50.96
2023-04-09T02:26:54.868Z,51.04
2023-04-09T02:29:21.334Z,51.01
2023-04-09T02:31:47.839Z,51.19
2023-04-09T02:34:14.583Z,50.92
2023-04-09T02:36:41.011Z,50.68
2023-04-09T02:39:07.517Z,50.56
2023-04-09T02:41:34.229Z,50.61
2023-04-09T02:44:01.026Z,51.60
2023-04-09T02:46:27.530Z,51.87
2023-04-09T02:48:54.372Z,52.43
2023-04-09T02:51:21.210Z,51.77
2023-04-09T02:53:47.690Z,51.51
2023-04-09T02:56:16.511Z,51.71
2023-04-09T02:58:43.120Z,52.22
2023-04-09T03:01:10.622Z,52.35
2023-04-09T03:03:37.236Z,52.38
2023-04-09T03:06:03.781Z,52.66
2023-04-09T03:08:30.358Z,52.13
2023-04-09T03:10:56.901Z,52.08
2023-04-09T03:13:24.699Z,52.59
2023-04-09T03:15:51.439Z,52.18
2023-04-09T03:18:18.248Z,51.70
2023-04-09T03:20:45.440Z,52.57
2023-04-09T03:23:11.946Z,52.12
2023-04-09T03:25:40.781Z,51.88
2023-04-09T03:28:09.508Z,52.42
2023-04-09T03:30:35.957Z,52.84
2023-04-09T03:33:02.496Z,52.96
2023-04-09T03:35:29.068Z,52.50
2023-04-09T03:37:55.770Z,52.27
2023-04-09T03:40:22.272Z,52.33
2023-04-09T03:42:48.823Z,52.92
2023-04-09T03:45:16.892Z,53.18
2023-04-09T03:47:44.554Z,53.79
2023-04-09T03:50:11.520Z,53.68
2023-04-09T03:52:39.531Z,53.71
2023-04-09T03:55:06.162Z,53.88
2023-04-09T03:57:32.580Z,53.65
2023-04-09T03:59:59.440Z,52.95
2023-04-09T04:02:26.425Z,52.80
2023-04-09T04:04:53.087Z,52.93
2023-04-09T04:07:19.921Z,52.68
2023-04-09T04:09:49.442Z,53.13
2023-04-09T04:12:15.925Z,53.21
2023-04-09T04:14:42.389Z,52.97
2023-04-09T04:17:08.988Z,52.94
2023-04-09T04:19:35.414Z,52.64
2023-04-09T04:22:01.897Z,53.81
2023-04-09T04:24:28.836Z,53.33
2023-04-09T04:26:55.329Z,52.98
2023-04-09T04:29:21.853Z,52.84
2023-04-09T04:31:48.306Z,52.12
2023-04-09T04:34:17.035Z,52.12
2023-04-09T04:36:43.486Z,52.12
2023-04-09T04:39:10.002Z,51.67
2023-04-09T04:41:36.750Z,51.60
2023-04-09T04:44:03.242Z,51.96
2023-04-09T04:46:29.680Z,52.31
2023-04-09T04:48:56.160Z,52.64
2023-04-09T04:51:22.554Z,52.61
2023-04-09T04:53:49.439Z,52.76
2023-04-09T04:56:16.051Z,52.95
2023-04-09T04:58:42.550Z,53.29
2023-04-09T05:01:09.086Z,52.57
2023-04-09T05:03:35.845Z,52.38
2023-04-09T05:06:02.429Z,52.67
2023-04-09T05:08:28.877Z,52.66
2023-04-09T05:10:55.442Z,52.34
2023-04-09T05:13:21.885Z,52.46
2023-04-09T05:15:48.378Z,53.33
2023-04-09T05:18:15.158Z,53.29
2023-04-09T05:20:42.362Z,53.19
2023-04-09T05:23:09.846Z,52.79
2023-04-09T05:25:36.456Z,53.13
2023-04-09T05:28:03.649Z,52.61
2023-04-09T05:30:30.146Z,52.64
2023-04-09T05:32:56.818Z,53.35
2023-04-09T05:35:24.183Z,53.56
2023-04-09T05:37:50.657Z,53.57
2023-04-09T05:40:19.613Z,53.31
2023-04-09T05:42:46.105Z,52.86
2023-04-09T05:45:13.580Z,52.87
2023-04-09T05:47:40.498Z,53.16
2023-04-09T05:50:07.310Z,52.64
2023-04-09T05:52:33.930Z,52.87
2023-04-09T05:55:00.644Z,52.70
2023-04-09T05:57:27.269Z,52.82
2023-04-09T05:59:53.747Z,52.65
2023-04-09T06:02:20.443Z,52.85
2023-04-09T06:04:47.161Z,52.87
2023-04-09T06:07:13.662Z,52.70
2023-04-09T06:09:46.385Z,52.20
2023-04-09T06:12:13.893Z,52.34
2023-04-09T06:14:40.991Z,52.45
2023-04-09T06:17:07.526Z,52.42
2023-04-09T06:19:33.966Z,53.00
2023-04-09T06:22:00.458Z,52.54
2023-04-09T06:24:27.095Z,52.25
2023-04-09T06:26:54.360Z,52.89
2023-04-09T06:29:24.427Z,52.73
2023-04-09T06:31:51.030Z,52.88
2023-04-09T06:34:17.574Z,53.21
2023-04-09T06:36:44.006Z,53.26
2023-04-09T06:39:11.688Z,53.15
2023-04-09T06:41:38.107Z,52.30
2023-04-09T06:44:04.668Z,52.22
2023-04-09T06:46:31.397Z,51.55
2023-04-09T06:48:59.517Z,51.50
2023-04-09T06:51:26.156Z,51.78
2023-04-09T06:53:52.922Z,51.98
2023-04-09T06:56:19.749Z,52.03
2023-04-09T06:58:46.661Z,52.09
2023-04-09T07:01:13.158Z,51.17
2023-04-09T07:03:40.089Z,50.87
2023-04-09T07:06:06.840Z,50.38
2023-04-09T07:08:33.355Z,51.50
2023-04-09T07:10:59.888Z,51.86
2023-04-09T07:15:58.289Z,50.59
2023-04-09T07:18:24.760Z,49.85
2023-04-09T07:20:51.282Z,49.90
2023-04-09T07:23:18.030Z,50.27
2023-04-09T07:25:46.917Z,50.61
2023-04-09T07:28:13.392Z,50.48
2023-04-09T07:30:40.226Z,51.43
2023-04-09T07:33:06.791Z,50.15
2023-04-09T07:35:38.121Z,51.19
2023-04-09T07:38:06.827Z,51.15
2023-04-09T07:40:33.705Z,50.70
2023-04-09T07:43:00.704Z,50.00
2023-04-09T07:45:27.308Z,50.33
2023-04-09T07:47:54.362Z,50.55
2023-04-09T07:50:20.939Z,49.61
2023-04-09T07:52:47.902Z,49.37
2023-04-09T07:55:16.296Z,48.82
2023-04-09T07:57:43.754Z,49.69
2023-04-09T08:00:10.503Z,49.51
2023-04-09T08:02:37.645Z,49.25
2023-04-09T08:05:05.359Z,48.78
2023-04-09T08:07:31.966Z,48.97
2023-04-09T08:09:58.383Z,49.00
2023-04-09T08:12:25.177Z,48.66
2023-04-09T08:14:51.641Z,47.45
2023-04-09T08:17:18.482Z,47.82
2023-04-09T08:19:44.931Z,48.66
2023-04-09T08:22:11.361Z,48.06
2023-04-09T08:24:40.254Z,48.25
2023-04-09T08:27:06.668Z,48.23
2023-04-09T08:29:33.492Z,47.28
2023-04-09T08:32:02.387Z,46.88
2023-04-09T08:34:28.830Z,48.30
2023-04-09T08:36:55.596Z,47.87
2023-04-09T08:39:22.295Z,47.78
2023-04-09T08:41:48.808Z,46.32
2023-04-09T08:44:15.434Z,46.15
2023-04-09T08:46:41.902Z,46.42
2023-04-09T08:49:08.345Z,46.26
2023-04-09T08:51:34.872Z,45.73
2023-04-09T08:54:04.043Z,47.13
2023-04-09T08:56:31.427Z,46.95
2023-04-09T08:58:57.929Z,48.09
2023-04-09T09:01:24.643Z,47.86
2023-04-09T09:03:51.294Z,47.35
2023-04-09T09:06:17.777Z,47.23
2023-04-09T09:08:44.289Z,46.85
2023-04-09T09:11:10.740Z,47.33
2023-04-09T09:13:37.470Z,47.12
2023-04-09T09:16:04.054Z,48.21
2023-04-09T09:18:30.582Z,48.46
2023-04-09T09:20:57.000Z,47.42
2023-04-09T09:23:23.676Z,48.00
2023-04-09T09:25:50.127Z,47.22
2023-04-09T09:28:16.782Z,46.80
2023-04-09T09:30:43.371Z,45.90
2023-04-09T09:33:09.930Z,46.70
2023-04-09T09:35:36.978Z,46.84
2023-04-09T09:38:03.443Z,46.75
2023-04-09T09:40:30.537Z,47.31
2023-04-09T09:42:57.031Z,48.08
2023-04-09T09:45:23.472Z,46.90
2023-04-09T09:47:49.983Z,47.61
2023-04-09T09:50:17.297Z,46.98
2023-04-09T09:52:44.103Z,46.39
2023-04-09T09:55:10.544Z,46.84
2023-04-09T09:57:37.734Z,47.07
2023-04-09T10:00:04.481Z,47.69
2023-04-09T10:02:31.477Z,46.78
2023-04-09T10:04:58.179Z,46.79
2023-04-09T10:07:24.693Z,46.95
2023-04-09T10:09:51.135Z,45.99
2023-04-09T10:12:17.616Z,45.10
2023-04-09T10:14:45.045Z,45.22
2023-04-09T10:17:12.278Z,45.75
2023-04-09T10:19:39.023Z,44.54
2023-04-09T10:22:05.506Z,43.85
2023-04-09T10:24:32.105Z,43.56
2023-04-09T10:27:00.916Z,43.22
2023-04-09T10:29:27.363Z,42.50
2023-04-09T10:31:53.802Z,43.42
2023-04-09T10:34:23.368Z,43.43
2023-04-09T10:36:49.974Z,43.09
2023-04-09T10:39:17.568Z,43.34
2023-04-09T10:41:44.083Z,42.65
2023-04-09T10:44:10.816Z,41.95
2023-04-09T10:46:37.687Z,41.92
2023-04-09T10:49:04.622Z,41.93
2023-04-09T10:51:31.221Z,41.19
2023-04-09T10:54:02.046Z,41.74
2023-04-09T10:56:28.481Z,40.96
2023-04-09T10:58:55.184Z,42.13
2023-04-09T11:01:21.732Z,41.06
2023-04-09T11:03:48.287Z,40.56
2023-04-09T11:06:15.713Z,40.78
2023-04-09T11:08:42.152Z,41.50
2023-04-09T11:11:08.654Z,41.99
2023-04-09T11:13:35.157Z,43.42
2023-04-09T11:16:01.689Z,43.49
2023-04-09T11:18:28.298Z,43.16
2023-04-09T11:20:54.840Z,43.04
2023-04-09T11:23:21.332Z,41.91
2023-04-09T11:25:48.594Z,42.16
2023-04-09T11:28:15.110Z,41.92
2023-04-09T11:30:41.573Z,41.38
2023-04-09T11:33:08.023Z,41.46
2023-04-09T11:35:34.480Z,41.37
2023-04-09T11:38:00.920Z,40.59
2023-04-09T11:40:27.408Z,40.13
2023-04-09T11:42:54.491Z,40.80
2023-04-09T11:45:21.913Z,40.28
2023-04-09T11:47:48.545Z,39.09
2023-04-09T11:50:15.250Z,38.80
2023-04-09T11:52:41.791Z,38.78
2023-04-09T11:55:08.508Z,38.64
2023-04-09T11:57:35.134Z,39.80
2023-04-09T12:00:05.060Z,39.80
2023-04-09T12:02:31.977Z,38.92
2023-04-09T12:04:59.404Z,38.20
2023-04-09T12:07:28.369Z,39.09
2023-04-09T12:09:54.848Z,38.57
2023-04-09T12:12:21.302Z,39.03
2023-04-09T12:14:47.954Z,38.59
2023-04-09T12:17:14.467Z,39.95
2023-04-09T12:19:40.921Z,37.40
2023-04-09T12:22:07.458Z,35.51
2023-04-09T12:24:33.907Z,35.39
2023-04-09T12:27:00.526Z,36.06
2023-04-09T12:29:27.158Z,35.78
2023-04-09T12:31:53.660Z,35.97
2023-04-09T12:34:20.678Z,36.47
2023-04-09T12:36:48.740Z,37.08
2023-04-09T12:39:15.329Z,37.97
2023-04-09T12:41:41.787Z,38.56
2023-04-09T12:44:08.181Z,39.27
2023-04-09T12:46:34.707Z,38.37
2023-04-09T12:49:02.241Z,39.01
2023-04-09T12:51:30.189Z,39.50
2023-04-09T12:53:57.204Z,39.77
2023-04-09T12:56:23.590Z,39.81
2023-04-09T12:58:50.090Z,40.38
2023-04-09T13:01:16.754Z,40.33
2023-04-09T13:03:43.856Z,40.00
2023-04-09T13:06:10.662Z,40.38
2023-04-09T13:08:37.625Z,40.17
2023-04-09T13:11:04.432Z,39.11
2023-04-09T13:13:30.961Z,39.97
2023-04-09T13:15:57.665Z,40.20
2023-04-09T13:18:24.131Z,40.41
2023-04-09T13:20:50.637Z,40.40
2023-04-09T13:23:17.615Z,40.12
2023-04-09T13:25:44.097Z,39.74
2023-04-09T13:28:10.535Z,38.87
2023-04-09T13:30:37.763Z,40.19
2023-04-09T13:33:04.440Z,39.82
2023-04-09T13:35:32.343Z,42.42
2023-04-09T13:37:59.211Z,43.61
2023-04-09T13:40:25.981Z,43.11
2023-04-09T13:42:52.441Z,41.62
2023-04-09T13:45:19.927Z,41.46
2023-04-09T13:47:46.395Z,41.28
2023-04-09T13:50:12.861Z,41.26
2023-04-09T13:52:39.579Z,38.67
2023-04-09T13:55:06.023Z,40.15
2023-04-09T13:57:32.551Z,39.24
2023-04-09T13:59:58.999Z,38.47
2023-04-09T14:02:25.951Z,38.85
2023-04-09T14:04:52.519Z,38.74
2023-04-09T14:07:19.430Z,38.51
2023-04-09T14:09:45.903Z,36.96
2023-04-09T14:12:12.832Z,37.60
2023-04-09T14:14:39.339Z,36.86
2023-04-09T14:17:05.804Z,37.02
2023-04-09T14:19:32.558Z,35.25
2023-04-09T14:22:00.271Z,35.94
2023-04-09T14:24:27.164Z,36.84
2023-04-09T14:26:53.767Z,36.94
2023-04-09T14:29:20.259Z,39.75
2023-04-09T14:31:46.951Z,36.50
2023-04-09T14:34:13.574Z,35.64
2023-04-09T14:36:40.049Z,35.61
2023-04-09T14:39:07.078Z,36.44
2023-04-09T14:41:33.609Z,36.16
2023-04-09T14:44:00.144Z,36.26
2023-04-09T14:46:26.713Z,36.66
2023-04-09T14:48:53.458Z,36.98
2023-04-09T14:51:20.251Z,37.51
2023-04-09T14:53:47.808Z,38.28
2023-04-09T14:56:14.246Z,39.12
2023-04-09T14:58:40.723Z,39.42
2023-04-09T15:01:07.296Z,39.63
2023-04-09T15:03:34.246Z,38.93
2023-04-09T15:06:01.190Z,39.08
2023-04-09T15:08:28.831Z,38.96
2023-04-09T15:10:55.273Z,39.51
2023-04-09T15:13:21.748Z,38.86
2023-04-09T15:15:48.516Z,39.14
2023-04-09T15:18:15.235Z,38.72
2023-04-09T15:20:41.956Z,39.29
2023-04-09T15:23:08.411Z,38.88
2023-04-09T15:25:34.872Z,39.96
2023-04-09T15:28:01.305Z,40.29
2023-04-09T15:30:27.843Z,40.80
2023-04-09T15:32:54.330Z,41.50
2023-04-09T15:35:20.851Z,41.39
2023-04-09T15:37:47.965Z,41.30
2023-04-09T15:40:14.382Z,41.33
2023-04-09T15:42:41.171Z,42.68
2023-04-09T15:45:07.701Z,42.13
2023-04-09T15:47:34.385Z,42.47
2023-04-09T15:50:01.117Z,42.48
2023-04-09T15:52:27.614Z,42.29
2023-04-09T15:54:54.296Z,42.33
2023-04-09T15:57:20.838Z,41.89
2023-04-09T15:59:47.353Z,42.42
2023-04-09T16:02:14.382Z,41.87
2023-04-09T16:04:41.107Z,41.93
2023-04-09T16:07:07.656Z,42.11
2023-04-09T16:09:34.124Z,42.16
2023-04-09T16:12:00.853Z,41.65
2023-04-09T16:14:27.283Z,42.13
2023-04-09T16:16:54.069Z,42.40
2023-04-09T16:19:20.633Z,41.97
2023-04-09T16:21:47.100Z,42.32
2023-04-09T16:24:13.539Z,42.09
2023-04-09T16:26:40.351Z,42.01
2023-04-09T16:29:06.828Z,42.10
2023-04-09T16:31:33.488Z,42.19
2023-04-09T16:34:00.167Z,42.93
2023-04-09T16:36:27.864Z,43.28
2023-04-09T16:38:54.975Z,43.41
2023-04-09T16:41:21.866Z,43.35
2023-04-09T16:43:48.322Z,43.03
2023-04-09T16:46:14.870Z,43.35
2023-04-09T16:48:41.391Z,43.33
2023-04-09T16:51:08.005Z,42.98
2023-04-09T16:53:37.644Z,43.08
2023-04-09T16:56:05.799Z,43.09
2023-04-09T16:58:32.468Z,43.28
2023-04-09T17:00:59.032Z,44.09
2023-04-09T17:03:25.511Z,44.63
2023-04-09T17:05:52.238Z,44.17
2023-04-09T17:08:18.881Z,44.12
2023-04-09T17:10:45.311Z,43.78
2023-04-09T17:13:11.866Z,43.95
2023-04-09T17:15:38.378Z,43.64
2023-04-09T17:18:04.920Z,43.14
2023-04-09T17:20:32.462Z,43.33
2023-04-09T17:22:58.923Z,43.95
2023-04-09T17:25:25.453Z,43.88
2023-04-09T17:27:51.928Z,43.98
2023-04-09T17:30:18.415Z,46.10
2023-04-09T17:32:44.977Z,44.71
2023-04-09T17:35:11.449Z,43.54
2023-04-09T17:37:38.001Z,43.64
2023-04-09T17:40:04.862Z,43.76
2023-04-09T17:42:31.232Z,43.58
2023-04-09T17:44:57.651Z,43.57
2023-04-09T17:47:24.432Z,43.66
2023-04-09T17:49:51.194Z,43.49
2023-04-09T17:52:17.735Z,44.11
2023-04-09T17:54:45.511Z,43.99
2023-04-09T17:57:13.050Z,43.82
2023-04-09T17:59:39.480Z,43.65
2023-04-09T18:02:06.244Z,44.16
2023-04-09T18:04:33.230Z,44.07
2023-04-09T18:06:59.988Z,43.97
2023-04-09T18:09:26.468Z,43.93
2023-04-09T18:11:52.998Z,43.80
2023-04-09T18:14:21.616Z,43.84
2023-04-09T18:16:48.076Z,43.84
2023-04-09T18:19:14.900Z,44.28
2023-04-09T18:21:45.727Z,43.78
2023-04-09T18:24:12.278Z,43.61
2023-04-09T18:26:38.838Z,43.14
2023-04-09T18:29:05.393Z,43.29
2023-04-09T18:31:34.831Z,43.24
2023-04-09T18:34:01.533Z,43.27
2023-04-09T18:36:28.152Z,42.90
2023-04-09T18:38:54.734Z,43.53
2023-04-09T18:41:21.412Z,43.81
2023-04-09T18:43:47.975Z,44.22
2023-04-09T18:46:14.502Z,43.63
2023-04-09T18:48:41.253Z,43.41
2023-04-09T18:51:08.155Z,43.45
2023-04-09T18:53:34.709Z,43.39
2023-04-09T18:56:01.262Z,43.71
2023-04-09T18:58:27.752Z,44.67
2023-04-09T19:00:54.281Z,44.38
2023-04-09T19:03:21.063Z,44.11
2023-04-09T19:05:47.703Z,44.34
2023-04-09T19:08:14.140Z,45.19
2023-04-09T19:10:40.917Z,44.52
2023-04-09T19:13:07.827Z,44.50
2023-04-09T19:15:35.093Z,44.63
2023-04-09T19:18:01.573Z,45.11
2023-04-09T19:20:28.328Z,44.89
2023-04-09T19:22:55.049Z,44.76
2023-04-09T19:25:21.477Z,45.13
2023-04-09T19:27:48.285Z,44.94
2023-04-09T19:30:15.179Z,45.10
2023-04-09T19:32:41.638Z,45.39
2023-04-09T19:35:08.082Z,45.39
2023-04-09T19:37:35.959Z,45.32
2023-04-09T19:40:02.507Z,45.02
2023-04-09T19:42:28.941Z,44.90
2023-04-09T19:44:55.664Z,45.11
2023-04-09T19:47:22.432Z,45.65
2023-04-09T19:49:49.038Z,45.18
2023-04-09T19:52:15.627Z,44.93
2023-04-09T19:54:42.374Z,44.64
2023-04-09T19:57:10.351Z,45.40
2023-04-09T19:59:38.470Z,45.11
2023-04-09T20:02:05.055Z,45.42
2023-04-09T20:04:32.136Z,45.51
2023-04-09T20:06:59.624Z,45.98
2023-04-09T20:09:26.080Z,46.14
2023-04-09T20:11:52.560Z,45.99
2023-04-09T20:14:19.272Z,46.35
2023-04-09T20:16:46.456Z,46.61
2023-04-09T20:19:12.884Z,46.64
2023-04-09T20:21:40.115Z,46.36
2023-04-09T20:24:06.539Z,46.44
2023-04-09T20:26:33.143Z,46.25
2023-04-09T20:28:59.669Z,46.00
2023-04-09T20:31:26.571Z,45.99
2023-04-09T20:33:53.134Z,46.34
2023-04-09T20:36:19.677Z,46.06
2023-04-09T20:38:46.117Z,46.46
2023-04-09T20:41:12.668Z,46.47
2023-04-09T20:43:39.096Z,46.54
2023-04-09T20:46:08.017Z,46.54
2023-04-09T20:48:34.514Z,46.37
2023-04-09T20:51:00.951Z,46.16
2023-04-09T20:53:27.536Z,45.97
2023-04-09T20:55:53.989Z,46.74
2023-04-09T20:58:20.389Z,46.63
2023-04-09T21:00:47.030Z,46.41
2023-04-09T21:03:13.675Z,46.41
2023-04-09T21:05:41.511Z,46.42
2023-04-09T21:08:08.697Z,46.32
2023-04-09T21:10:35.390Z,46.45
2023-04-09T21:13:01.847Z,46.20
2023-04-09T21:15:28.558Z,46.25
2023-04-09T21:17:55.081Z,46.51
2023-04-09T21:20:21.982Z,46.23
2023-04-09T21:22:51.487Z,46.15
2023-04-09T21:25:18.001Z,46.03
2023-04-09T21:27:44.521Z,46.63
2023-04-09T21:30:10.987Z,46.75
2023-04-09T21:32:37.479Z,46.49
2023-04-09T21:35:04.501Z,46.30
2023-04-09T21:37:30.870Z,46.18
2023-04-09T21:39:57.322Z,46.33
2023-04-09T21:42:24.293Z,46.16
2023-04-09T21:44:50.737Z,46.90
2023-04-09T21:47:17.200Z,47.51
2023-04-09T21:49:43.705Z,47.14
2023-04-09T21:52:10.387Z,46.96
2023-04-09T21:54:36.821Z,46.95
2023-04-09T21:57:03.403Z,46.99
2023-04-09T21:59:29.813Z,47.40
2023-04-09T22:01:56.317Z,47.52
2023-04-09T22:04:22.919Z,47.45
2023-04-09T22:06:49.421Z,47.72
2023-04-09T22:09:20.017Z,47.63
2023-04-09T22:11:46.728Z,47.96
2023-04-09T22:14:13.221Z,47.90
2023-04-09T22:16:39.809Z,47.73
2023-04-09T22:19:06.211Z,47.63
2023-04-09T22:21:32.636Z,47.65
2023-04-09T22:23:59.080Z,47.87
2023-04-09T22:26:25.669Z,47.80
2023-04-09T22:28:52.460Z,47.65
2023-04-09T22:31:22.477Z,47.65
2023-04-09T22:33:48.885Z,48.03
2023-04-09T22:36:15.460Z,48.65
2023-04-09T22:38:41.963Z,48.74
2023-04-09T22:41:08.367Z,48.70
2023-04-09T22:43:34.820Z,48.68
2023-04-09T22:46:01.427Z,48.49
2023-04-09T22:48:28.198Z,48.41
2023-04-09T22:50:56.075Z,48.99
2023-04-09T22:53:22.547Z,48.93
2023-04-09T22:55:51.858Z,48.88
2023-04-09T22:58:18.590Z,49.46
2023-04-09T23:00:48.105Z,49.87
2023-04-09T23:03:15.366Z,49.99
2023-04-09T23:05:42.480Z,49.83
2023-04-09T23:08:08.979Z,49.99
2023-04-09T23:10:35.469Z,49.63
2023-04-09T23:13:02.001Z,49.39
2023-04-09T23:15:28.597Z,49.25
2023-04-09T23:17:55.542Z,49.35
2023-04-09T23:20:22.185Z,49.30
2023-04-09T23:22:48.586Z,49.30
2023-04-09T23:25:15.436Z,49.40
2023-04-09T23:27:42.384Z,49.88
2023-04-09T23:30:09.477Z,49.68
2023-04-09T23:32:35.941Z,49.72
2023-04-09T23:35:02.517Z,49.48
2023-04-09T23:37:29.079Z,49.41
2023-04-09T23:39:55.604Z,49.72
2023-04-09T23:42:22.352Z,50.08
2023-04-09T23:44:49.078Z,50.44
2023-04-09T23:47:15.640Z,49.93
2023-04-09T23:49:42.152Z,49.95
2023-04-09T23:52:09.595Z,50.51
2023-04-09T23:54:36.255Z,49.95
2023-04-09T23:57:03.271Z,49.93
2023-04-09T23:59:29.865Z,49.45
